Latest Weather Observations for Moruya Airport

IDN60901

Issued at 5:15 am EDT Friday 28 November 2014 (issued every 10 minutes, with the page automatically refreshed every 10 minutes)

About weather observations | Map of Canberra area stations | Latest observations for Canberra area | Other Formats
Station Details ID: 069148 Name: MORUYA AIRPORT AWS Lat: -35.90 Lon: 150.14 Height: 4.0 m
Data from the previous 72 hours. | See also: Recent months for locations in Aust Capital Territory
Date/Time
EDT
Tmp

°C
App
Tmp
°C
Dew
Point
°C
Rel
Hum
%
Delta-T

°C
Wind Press
QNH
hPa
Press
MSL
hPa
Rain
since
9 am
mm
Dir
 
Spd
km/h
Gust
km/h
Spd
kts
Gust
kts
28/05:02am 12.1 11.4 12.1 100 0.0 W 7 9 4 5 1022.8 1022.7 0.0
28/05:00am 12.1 11.4 12.1 100 0.0 W 7 9 4 5 1022.8 1022.7 0.0
28/04:47am 12.3 12.9 12.0 98 0.2 CALM 0 6 0 3 1022.8 1022.7 0.0
28/04:30am 12.8 12.4 12.5 98 0.2 WSW 6 7 3 4 1022.8 1022.7 0.0
28/04:00am 13.7 13.6 13.2 97 0.3 W 6 11 3 6 1022.9 1022.8 0.0
28/03:30am 14.0 14.2 13.2 95 0.4 W 4 7 2 4 1022.9 1022.8 0.0
28/03:24am 14.1 14.4 13.3 95 0.4 W 4 7 2 4 1023.0 1023.0 0.0
28/03:10am 14.3 14.2 13.3 94 0.6 WSW 6 7 3 4 1023.2 1023.2 0.0
28/03:00am 14.3 14.2 13.2 93 0.6 WSW 6 7 3 4 1023.2 1023.2 0.0
28/02:30am 14.5 14.2 13.2 92 0.7 W 7 11 4 6 1023.5 1023.5 0.0
28/02:13am 14.5 14.2 13.2 92 0.7 W 7 11 4 6 1023.6 1023.6 0.0
28/02:00am 14.5 13.8 13.2 92 0.7 W 9 11 5 6 1023.7 1023.7 0.0
28/01:58am 14.5 13.9 13.4 93 0.6 W 9 11 5 6 1023.7 1023.7 0.0
28/01:30am 14.6 14.6 13.6 94 0.6 W 6 13 3 7 1024.0 1024.0 0.0
28/01:00am 14.4 13.8 13.6 95 0.4 WSW 9 13 5 7 1024.1 1024.1 0.0
28/12:30am 13.4 13.0 12.9 97 0.3 W 7 11 4 6 1024.3 1024.3 0.0
28/12:00am 14.0 13.6 12.9 93 0.6 W 7 9 4 5 1024.6 1024.6 0.0
 
Date/Time
EDT
Tmp

°C
App
Tmp
°C
Dew
Point
°C
Rel
Hum
%
Delta-T

°C
Wind Press
QNH
hPa
Press
MSL
hPa
Rain
since
9 am
mm
Dir
 
Spd
km/h
Gust
km/h
Spd
kts
Gust
kts
27/11:30pm 14.6 14.2 13.0 90 0.9 W 7 9 4 5 1024.8 1024.8 0.0
27/11:00pm 15.5 15.2 13.2 86 1.3 W 7 9 4 5 1024.9 1024.9 0.0
27/10:30pm 15.8 15.5 13.3 85 1.4 WNW 7 11 4 6 1025.0 1025.0 0.0
27/10:27pm 15.8 15.5 13.3 85 1.4 WNW 7 11 4 6 1025.0 1025.0 0.0
27/10:08pm 15.9 15.4 12.8 82 1.7 WNW 7 11 4 6 1025.1 1025.1 0.0
27/10:00pm 15.9 15.5 13.0 83 1.6 WNW 7 9 4 5 1025.1 1025.1 0.0
27/09:30pm 16.1 16.4 13.4 84 1.5 W 4 7 2 4 1025.1 1025.1 0.0
27/09:00pm 16.4 16.2 13.7 84 1.5 WSW 7 9 4 5 1024.7 1024.7 0.0
27/08:30pm 16.9 16.4 12.8 77 2.3 S 7 9 4 5 1024.6 1024.6 0.0
27/08:27pm 16.9 16.4 12.8 77 2.3 S 7 9 4 5 1024.6 1024.6 0.0
27/08:13pm 16.8 16.3 12.7 77 2.3 SSW 7 9 4 5 1024.5 1024.5 0.0
27/08:00pm 16.9 16.4 12.8 77 2.3 SSW 7 11 4 6 1024.4 1024.4 0.0
27/07:30pm 17.1 16.2 12.6 75 2.5 S 9 13 5 7 1024.3 1024.3 0.0
27/07:00pm 17.4 16.5 12.7 74 2.6 S 9 13 5 7 1024.1 1024.1 0.0
27/06:34pm 17.3 15.9 12.2 72 2.8 SSE 11 15 6 8 1024.0 1024.0 0.0
27/06:30pm 17.5 16.4 13.0 75 2.5 SSE 11 17 6 9 1024.0 1024.0 0.0
27/06:15pm 17.3 15.9 12.2 72 2.8 SSE 11 15 6 8 1023.9 1023.9 0.0
27/06:00pm 17.3 15.5 12.0 71 2.9 SSE 13 17 7 9 1023.7 1023.7 0.0
27/05:30pm 17.4 15.3 12.5 73 2.7 SSE 15 20 8 11 1023.6 1023.6 0.0
27/05:00pm 17.6 15.9 12.3 71 2.9 SSE 13 19 7 10 1023.5 1023.5 0.0
27/04:30pm 17.6 15.8 12.1 70 3.0 SSE 13 19 7 10 1023.5 1023.5 0.0
27/04:00pm 17.9 15.8 12.4 70 3.0 SSE 15 19 8 10 1023.4 1023.4 0.0
27/03:30pm 18.0 16.0 12.7 71 3.0 SSE 15 20 8 11 1023.5 1023.5 0.0
27/03:00pm 17.8 16.1 12.3 70 3.0 SSE 13 19 7 10 1023.5 1023.5 0.0
27/02:30pm 17.8 15.6 12.0 69 3.2 SE 15 22 8 12 1023.6 1023.6 0.0
27/02:00pm 18.0 16.2 12.2 69 3.2 SSE 13 19 7 10 1023.6 1023.6 0.0
27/01:30pm 18.2 16.5 12.6 70 3.1 SSE 13 20 7 11 1023.5 1023.5 0.0
27/01:00pm 18.2 16.3 12.9 71 3.0 SSE 15 20 8 11 1023.6 1023.6 0.0
27/12:30pm 17.7 16.1 11.7 68 3.3 SE 11 17 6 9 1023.7 1023.7 0.0
27/12:00pm 17.6 15.6 11.6 68 3.3 SE 13 19 7 10 1023.8 1023.8 0.0
27/11:30am 17.0 14.7 11.7 71 2.9 SSE 15 19 8 10 1023.8 1023.8 0.0
27/11:20am 17.0 14.6 11.5 70 3.0 SSE 15 20 8 11 1023.8 1023.8 0.0
27/11:04am 16.8 14.2 11.9 73 2.7 SSE 17 22 9 12 1023.9 1023.9 0.0
27/11:00am 16.9 14.4 12.2 74 2.6 SSE 17 26 9 14 1023.9 1023.9 0.0
27/10:30am 16.6 14.1 12.2 75 2.4 S 17 24 9 13 1023.9 1023.9 0.0
27/10:00am 16.7 14.6 13.6 82 1.7 S 17 26 9 14 1023.9 1023.9 0.0
27/09:30am 16.0 13.8 13.3 84 1.5 S 17 24 9 13 1023.7 1023.7 0.0
27/09:00am 15.8 13.7 13.5 86 1.3 S 17 22 9 12 1023.6 1023.6 4.2
27/08:30am 15.8 14.8 14.5 92 0.7 S 13 20 7 11 1023.3 1023.3 4.2
27/08:13am 15.6 15.0 14.6 94 0.6 S 11 15 6 8 1023.2 1023.2 4.2
27/08:02am 15.5 14.9 14.7 95 0.5 S 11 15 6 8 1023.2 1023.2 4.2
27/08:00am 15.6 15.1 15.0 96 0.3 S 11 15 6 8 1023.2 1023.2 4.2
27/07:30am 15.2 15.8 15.2 100 0.0 S 6 13 3 7 1022.8 1022.7 4.2
27/07:00am 14.9 14.0 14.9 100 0.0 S 13 20 7 11 1022.6 1022.5 4.2
27/06:57am 14.7 13.4 14.7 100 0.0 S 15 20 8 11 1022.6 1022.5 4.0
27/06:44am 14.7 13.0 14.7 100 0.0 S 17 22 9 12 1022.6 1022.5 4.0
27/06:30am 14.6 11.9 14.6 100 0.0 SSE 22 30 12 16 1022.5 1022.4 3.8
27/06:09am 15.4 16.0 15.4 100 0.0 WNW 6 22 3 12 1022.1 1022.0 2.2
27/06:07am 15.3 16.3 15.3 100 0.0 WNW 4 15 2 8 1022.0 1021.9 2.0
27/06:00am 15.1 16.0 15.1 100 0.0 WNW 4 7 2 4 1021.9 1021.8 1.4
27/05:30am 15.0 14.9 15.0 100 0.0 WNW 9 11 5 6 1021.5 1021.4 1.4
27/05:00am 15.0 15.3 15.0 100 0.0 WNW 7 9 4 5 1021.3 1021.2 1.2
27/04:30am 15.0 14.9 15.0 100 0.0 WNW 9 13 5 7 1020.9 1020.8 1.2
27/04:00am 15.1 15.4 15.1 100 0.0 W 7 11 4 6 1020.8 1020.7 1.0
27/03:30am 15.2 15.2 15.2 100 0.0 W 9 13 5 7 1020.7 1020.6 0.8
27/03:06am 15.4 15.8 15.4 100 0.0 W 7 11 4 6 1020.7 1020.6 0.4
27/03:00am 15.4 15.8 15.4 100 0.0 WNW 7 13 4 7 1020.7 1020.6 0.4
27/02:30am 15.7 15.9 15.7 100 0.0 WNW 9 15 5 8 1020.7 1020.6 0.0
27/02:00am 16.1 16.3 15.8 98 0.2 W 9 13 5 7 1020.9 1020.8 0.0
27/01:30am 16.3 16.5 15.7 96 0.4 W 9 11 5 6 1020.9 1020.8 0.0
27/01:00am 16.5 16.9 15.2 92 0.8 W 7 11 4 6 1021.3 1021.2 0.0
27/12:30am 16.8 17.2 15.2 90 0.9 WSW 7 9 4 5 1021.5 1021.4 0.0
27/12:20am 17.0 16.5 14.8 87 1.3 S 11 15 6 8 1021.5 1021.4 0.0
27/12:07am 17.0 16.2 15.2 89 1.0 S 13 20 7 11 1021.6 1021.5 0.0
27/12:00am 16.9 16.1 15.2 90 1.0 S 13 20 7 11 1021.7 1021.6 0.0
 
Date/Time
EDT
Tmp

°C
App
Tmp
°C
Dew
Point
°C
Rel
Hum
%
Delta-T

°C
Wind Press
QNH
hPa
Press
MSL
hPa
Rain
since
9 am
mm
Dir
 
Spd
km/h
Gust
km/h
Spd
kts
Gust
kts
26/11:30pm 16.8 15.8 15.5 92 0.8 SSW 15 20 8 11 1021.7 1021.6 0.0
26/11:00pm 17.6 16.0 15.0 85 1.5 SSE 17 24 9 13 1021.5 1021.4 0.0
26/10:30pm 17.0 16.0 15.5 91 0.9 SE 15 20 8 11 1021.6 1021.5 0.0
26/10:00pm 17.3 14.7 14.9 86 1.4 S 22 28 12 15 1021.5 1021.4 0.0
26/09:30pm 18.3 15.8 13.6 74 2.7 SSE 19 24 10 13 1021.3 1021.2 0.0
26/09:00pm 18.4 16.1 14.1 76 2.5 SSE 19 30 10 16 1020.7 1020.6 0.0
26/08:30pm 18.6 16.4 14.3 76 2.5 SSE 19 30 10 16 1020.4 1020.3 0.0
26/08:00pm 18.7 16.7 15.0 79 2.2 SE 19 28 10 15 1020.3 1020.2 0.0
26/07:30pm 18.7 16.3 15.4 81 1.9 SSE 22 32 12 17 1020.0 1019.9 0.0
26/07:00pm 18.8 16.2 15.9 83 1.7 SSE 24 35 13 19 1019.5 1019.4 0.0
26/06:30pm 19.3 16.8 16.2 82 1.9 SE 24 35 13 19 1019.0 1018.9 0.0
26/06:00pm 19.2 17.1 16.2 83 1.8 SSE 22 33 12 18 1018.8 1018.7 0.0
26/05:52pm 19.3 16.9 16.3 83 1.8 SE 24 35 13 19 1018.7 1018.6 0.0
26/05:34pm 19.7 17.4 16.7 83 1.8 SSE 24 32 13 17 1018.5 1018.4 0.0
26/05:30pm 19.7 17.3 16.5 82 1.9 SSE 24 32 13 17 1018.4 1018.3 0.0
26/05:16pm 19.8 17.9 16.6 82 1.9 SE 22 32 12 17 1018.4 1018.3 0.0
26/05:03pm 20.3 18.6 17.1 82 1.9 SSE 22 32 12 17 1018.2 1018.1 0.0
26/05:00pm 20.4 18.2 16.8 80 2.2 SSE 24 33 13 18 1018.2 1018.1 0.0
26/04:30pm 21.6 19.8 17.0 75 2.8 SE 22 33 12 18 1018.0 1017.9 0.0
26/04:00pm 22.2 21.0 17.6 75 2.8 ESE 20 33 11 18 1017.6 1017.5 0.0
26/03:30pm 23.3 21.9 15.6 62 4.6 E 17 20 9 11 1017.2 1017.1 0.0
26/03:00pm 23.6 22.4 16.1 62 4.5 E 17 20 9 11 1017.2 1017.1 0.0
26/02:30pm 23.2 21.9 15.8 63 4.5 ESE 17 20 9 11 1017.2 1017.1 0.0
26/02:00pm 23.5 22.4 16.3 64 4.4 E 17 22 9 12 1017.0 1016.9 0.0
26/01:30pm 22.8 21.2 15.9 65 4.2 E 19 22 10 12 1017.0 1016.9 0.0
26/01:00pm 22.6 20.5 15.2 63 4.4 ENE 20 24 11 13 1017.1 1017.0 0.0
26/12:30pm 23.2 21.6 16.5 66 4.1 ENE 20 24 11 13 1017.2 1017.1 0.0
26/12:00pm 22.3 20.7 15.9 67 3.8 ENE 19 24 10 13 1017.5 1017.4 0.0
26/11:30am 22.3 20.6 16.3 69 3.6 ENE 20 24 11 13 1017.8 1017.7 0.0
26/11:00am 21.9 20.3 16.0 69 3.5 ENE 19 20 10 11 1018.1 1018.0 0.0
26/10:30am 21.4 19.8 15.0 67 3.8 ENE 17 20 9 11 1018.3 1018.2 0.0
26/10:00am 20.7 19.3 14.6 68 3.6 ENE 15 19 8 10 1018.5 1018.4 0.0
26/09:30am 21.2 19.8 14.6 66 3.9 ENE 15 20 8 11 1018.6 1018.5 0.0
26/09:00am 20.5 20.2 14.4 68 3.5 NNE 9 15 5 8 1019.0 1018.9 0.0
26/08:30am 20.0 20.2 14.6 71 3.1 E 7 13 4 7 1019.2 1019.1 0.0
26/08:00am 18.4 18.9 14.9 80 2.0 SSW 6 9 3 5 1019.3 1019.2 0.0
26/07:30am 16.9 17.9 14.4 85 1.4 W 2 9 1 5 1019.2 1019.1 0.0
26/07:00am 15.4 16.8 14.3 93 0.6 CALM 0 6 0 3 1019.1 1019.0 0.0
26/06:30am 14.3 15.7 14.3 100 0.0 CALM 0 0 0 0 1019.1 1019.0 0.0
26/06:00am 13.1 12.9 13.1 100 0.0 W 6 7 3 4 1019.0 1018.9 0.0
26/05:30am 12.9 13.4 12.9 100 0.0 WNW 2 7 1 4 1018.9 1018.8 0.0
26/05:00am 13.4 14.5 13.4 100 0.0 CALM 0 0 0 0 1018.7 1018.6 0.0
26/04:30am 13.3 14.3 13.3 100 0.0 CALM 0 0 0 0 1018.5 1018.4 0.0
26/04:00am 13.2 14.1 13.0 99 0.1 CALM 0 0 0 0 1018.5 1018.4 0.0
26/03:31am 13.6 14.5 13.0 96 0.3 CALM 0 0 0 0 1018.5 1018.4 0.0
26/03:30am 13.6 14.5 13.0 96 0.3 CALM 0 0 0 0 1018.5 1018.4 0.0
26/03:21am 13.8 14.7 13.0 95 0.4 CALM 0 0 0 0 1018.5 1018.4 0.0
26/03:00am 14.7 16.0 14.1 96 0.3 CALM 0 0 0 0 1018.8 1018.7 0.0
26/02:30am 15.6 17.0 14.3 92 0.7 CALM 0 0 0 0 1019.1 1019.0 0.0
26/02:00am 15.8 17.1 14.2 90 0.9 CALM 0 0 0 0 1019.5 1019.4 0.0
26/01:30am 16.4 17.7 14.1 86 1.3 CALM 0 0 0 0 1019.7 1019.6 0.0
26/01:00am 16.9 17.7 13.8 82 1.8 NNW 2 7 1 4 1020.1 1020.0 0.0
26/12:30am 17.5 17.6 13.8 79 2.1 N 6 7 3 4 1020.2 1020.1 0.0
26/12:00am 17.8 17.6 13.5 76 2.4 N 7 9 4 5 1020.3 1020.2 0.0
 
Date/Time
EDT
Tmp

°C
App
Tmp
°C
Dew
Point
°C
Rel
Hum
%
Delta-T

°C
Wind Press
QNH
hPa
Press
MSL
hPa
Rain
since
9 am
mm
Dir
 
Spd
km/h
Gust
km/h
Spd
kts
Gust
kts
25/11:30pm 17.9 17.6 13.4 75 2.5 N 7 9 4 5 1020.4 1020.3 0.0
25/11:00pm 18.3 17.0 13.6 74 2.7 NNE 13 17 7 9 1020.5 1020.4 0.0
25/10:30pm 18.0 16.5 14.3 79 2.1 ENE 15 19 8 10 1020.6 1020.5 0.0
25/10:00pm 18.2 16.2 13.9 76 2.4 ENE 17 20 9 11 1020.5 1020.4 0.0
25/09:30pm 18.4 16.7 13.5 73 2.8 NNE 15 20 8 11 1020.1 1020.0 0.0
25/09:24pm 18.3 16.1 13.2 72 2.9 NNE 17 22 9 12 1020.1 1020.0 0.0
25/09:06pm 18.4 16.1 13.0 71 3.0 NE 17 24 9 13 1019.9 1019.8 0.0
25/09:00pm 18.5 16.2 13.1 71 3.0 NE 17 24 9 13 1019.8 1019.7 0.0
25/08:30pm 18.8 16.4 12.8 68 3.4 NE 17 28 9 15 1019.3 1019.2 0.0
25/08:00pm 18.9 16.5 12.6 67 3.5 NE 17 22 9 12 1019.0 1018.9 0.0
25/07:30pm 18.9 16.4 12.2 65 3.7 ENE 17 20 9 11 1018.6 1018.5 0.0
25/07:00pm 19.1 16.6 12.4 65 3.7 ENE 17 20 9 11 1018.2 1018.1 0.0
25/06:30pm 19.4 17.3 12.4 64 3.9 NE 15 20 8 11 1017.8 1017.7 0.0
25/06:00pm 19.6 17.3 11.9 61 4.3 ENE 15 20 8 11 1017.3 1017.2 0.0
25/05:30pm 19.9 17.4 12.2 61 4.3 E 17 20 9 11 1017.0 1016.9 0.0
25/05:00pm 20.0 17.4 12.0 60 4.4 E 17 20 9 11 1016.9 1016.8 0.0
25/04:30pm 21.1 18.3 11.4 54 5.4 E 17 20 9 11 1016.6 1016.5 0.0
25/04:00pm 21.1 18.0 10.3 50 5.9 E 17 20 9 11 1016.4 1016.3 0.0
25/03:30pm 21.6 19.0 11.9 54 5.4 E 17 20 9 11 1016.1 1016.0 0.0
25/03:00pm 21.0 17.4 9.9 49 6.0 ESE 19 22 10 12 1016.0 1015.9 0.0
25/02:30pm 21.1 17.9 11.2 53 5.5 ESE 19 24 10 13 1015.8 1015.7 0.0
25/02:00pm 21.3 18.0 11.6 54 5.4 ESE 20 26 11 14 1015.5 1015.4 0.0
25/01:30pm 21.7 18.9 13.1 58 4.9 ESE 20 24 11 13 1015.4 1015.3 0.0
25/01:00pm 21.5 19.2 14.2 63 4.3 ESE 19 24 10 13 1015.3 1015.2 0.0
25/12:30pm 21.0 18.6 14.4 66 3.9 ENE 20 26 11 14 1015.2 1015.1 0.0
25/12:00pm 21.0 19.7 15.8 72 3.1 ENE 17 20 9 11 1015.1 1015.0 0.0
25/11:30am 20.8 19.5 15.8 73 3.0 ENE 17 20 9 11 1014.8 1014.7 0.0
25/11:00am 20.3 19.2 15.3 73 3.0 ENE 15 17 8 9 1014.6 1014.5 0.0
25/10:30am 20.0 19.6 15.2 74 2.8 ESE 11 15 6 8 1014.5 1014.4 0.0
25/10:00am 19.7 18.8 14.9 74 2.8 ESE 13 17 7 9 1014.5 1014.4 0.0
25/09:30am 19.7 19.8 15.6 77 2.4 E 9 15 5 8 1014.0 1013.9 0.0
25/09:00am 18.6 19.0 15.3 81 1.9 S 7 11 4 6 1013.9 1013.8 6.0
25/08:30am 17.7 16.6 14.4 81 1.9 S 13 15 7 8 1013.4 1013.3 6.0
25/08:00am 17.4 16.2 13.9 80 2.0 S 13 17 7 9 1012.6 1012.5 6.0
25/07:30am 17.0 15.1 14.3 84 1.5 S 17 26 9 14 1012.4 1012.3 6.0
25/07:00am 17.1 15.8 14.9 87 1.3 SSE 15 24 8 13 1011.6 1011.5 6.0
25/06:30am 17.3 17.0 15.5 89 1.1 S 11 20 6 11 1010.9 1010.8 6.0
25/06:00am 17.1 15.5 15.1 88 1.2 SSE 17 24 9 13 1010.2 1010.1 6.0
25/05:30am 17.0 14.1 15.0 88 1.2 SSE 24 39 13 21 1009.5 1009.4 6.0

Latest Capital City Observations: Canberra | Sydney | Melbourne | Brisbane | Adelaide | Perth | Hobart | Darwin

Other Formats:

Comma delimited format used in spreadsheet applications
http://www.bom.gov.au/fwo/IDN60903/IDN60903.95937.axf

JavaScript Object Notation format (JSON) in row-major order
http://www.bom.gov.au/fwo/IDN60903/IDN60903.95937.json